createdAt,value
2023-04-22T00:01:15.203Z,0.50
2023-04-22T00:06:18.525Z,0.30
2023-04-22T00:11:21.728Z,0.60
2023-04-22T00:16:27.028Z,0.53
2023-04-22T00:21:30.377Z,0.40
2023-04-22T00:26:33.578Z,0.60
2023-04-22T00:31:38.048Z,0.60
2023-04-22T00:36:41.112Z,0.47
2023-04-22T00:41:44.895Z,0.77
2023-04-22T00:46:50.314Z,0.40
2023-04-22T00:51:53.732Z,0.40
2023-04-22T00:56:57.801Z,0.53
2023-04-22T01:02:02.831Z,0.50
2023-04-22T01:07:06.591Z,0.47
2023-04-22T01:12:10.202Z,0.70
2023-04-22T01:17:16.167Z,0.70
2023-04-22T01:22:19.922Z,0.40
2023-04-22T01:27:24.536Z,0.60
2023-04-22T01:32:30.395Z,0.60
2023-04-22T01:37:33.736Z,0.60
2023-04-22T01:42:38.444Z,0.67
2023-04-22T01:47:41.694Z,0.70
2023-04-22T01:52:44.899Z,0.80
2023-04-22T01:57:49.359Z,0.60
2023-04-22T02:02:52.578Z,0.50
2023-04-22T02:07:56.083Z,0.60
2023-04-22T02:13:00.596Z,0.70
2023-04-22T02:18:03.790Z,0.90
2023-04-22T02:23:06.999Z,0.70
2023-04-22T02:28:11.474Z,0.70
2023-04-22T02:33:14.730Z,0.80
2023-04-22T02:38:17.892Z,0.70
2023-04-22T02:43:22.367Z,0.70
2023-04-22T02:48:26.690Z,0.70
2023-04-22T02:53:29.791Z,0.80
2023-04-22T02:58:35.465Z,0.87
2023-04-22T03:03:38.769Z,0.90
2023-04-22T03:08:44.635Z,0.77
2023-04-22T03:13:49.059Z,0.90
2023-04-22T03:18:52.972Z,1.00
2023-04-22T03:23:58.174Z,0.90
2023-04-22T03:29:03.656Z,0.97
2023-04-22T03:34:07.242Z,0.83
2023-04-22T03:39:10.709Z,1.00
2023-04-22T03:44:16.405Z,0.90
2023-04-22T03:49:21.019Z,1.30
2023-04-22T03:54:24.754Z,1.13
2023-04-22T03:59:30.436Z,1.27
2023-04-22T04:04:34.908Z,1.20
2023-04-22T04:09:38.556Z,1.10
2023-04-22T04:14:43.652Z,1.17
2023-04-22T04:19:50.582Z,1.27
2023-04-22T04:24:55.868Z,1.33
2023-04-22T04:30:04.688Z,1.20
2023-04-22T04:35:14.684Z,1.20
2023-04-22T04:40:23.180Z,1.10
2023-04-22T04:45:48.510Z,1.20
2023-04-22T04:50:55.393Z,1.10
2023-04-22T04:56:01.131Z,1.10
2023-04-22T05:01:07.334Z,1.20
2023-04-22T05:06:11.533Z,1.00
2023-04-22T05:11:17.541Z,1.37
2023-04-22T05:16:25.503Z,1.23
2023-04-22T05:21:32.458Z,1.23
2023-04-22T05:26:36.306Z,1.17
2023-04-22T05:31:47.278Z,1.17
2023-04-22T05:36:50.731Z,1.03
2023-04-22T05:41:54.732Z,1.30
2023-04-22T05:47:00.001Z,1.13
2023-04-22T05:52:04.051Z,1.43
2023-04-22T05:57:17.103Z,1.20
2023-04-22T06:02:22.429Z,1.20
2023-04-22T06:07:26.173Z,0.90
2023-04-22T06:12:29.311Z,1.17
2023-04-22T06:17:33.936Z,0.90
2023-04-22T06:22:37.747Z,1.07
2023-04-22T06:27:41.089Z,1.20
2023-04-22T06:32:46.358Z,0.90
2023-04-22T06:37:49.669Z,0.90
2023-04-22T06:42:53.486Z,1.17
2023-04-22T06:48:24.312Z,0.90
2023-04-22T06:54:05.684Z,1.10
2023-04-22T06:59:08.961Z,1.03
2023-04-22T07:04:13.950Z,1.40
2023-04-22T07:09:18.134Z,1.47
2023-04-22T07:14:21.387Z,1.10
2023-04-22T07:19:25.919Z,1.27
2023-04-22T07:24:28.988Z,1.30
2023-04-22T07:29:32.153Z,1.43
2023-04-22T07:34:36.695Z,1.20
2023-04-22T07:39:40.166Z,1.20
2023-04-22T07:44:43.651Z,1.20
2023-04-22T07:49:48.297Z,1.23
2023-04-22T07:54:51.793Z,1.07
2023-04-22T07:59:54.924Z,1.00
2023-04-22T08:04:59.451Z,0.83
2023-04-22T08:10:02.692Z,1.10
2023-04-22T08:15:06.806Z,1.13
2023-04-22T08:20:12.289Z,1.10
2023-04-22T08:25:16.096Z,1.13
2023-04-22T08:30:19.643Z,1.40
2023-04-22T08:35:24.173Z,1.60
2023-04-22T08:40:27.791Z,0.90
2023-04-22T08:45:31.241Z,0.80
2023-04-22T08:50:37.956Z,0.70
2023-04-22T08:55:44.728Z,0.80
2023-04-22T09:00:48.598Z,1.10
2023-04-22T09:05:54.192Z,1.00
2023-04-22T09:10:58.637Z,1.00
2023-04-22T09:16:01.905Z,1.10
2023-04-22T09:21:06.761Z,0.90
2023-04-22T09:26:09.950Z,1.17
2023-04-22T09:31:15.627Z,1.10
2023-04-22T09:36:24.213Z,1.10
2023-04-22T09:41:28.970Z,1.20
2023-04-22T09:46:33.680Z,1.20
2023-04-22T09:51:41.860Z,1.00
2023-04-22T09:56:48.521Z,0.90
2023-04-22T10:01:54.382Z,1.03
2023-04-22T10:06:59.816Z,0.97
2023-04-22T10:12:03.736Z,1.10
2023-04-22T10:17:07.717Z,0.97
2023-04-22T10:22:12.836Z,1.03
2023-04-22T10:27:22.838Z,1.37
2023-04-22T10:32:27.101Z,1.10
2023-04-22T10:37:33.684Z,1.20
2023-04-22T10:42:37.553Z,1.10
2023-04-22T10:47:41.873Z,0.80
2023-04-22T10:52:48.754Z,1.17
2023-04-22T10:57:53.971Z,1.20
2023-04-22T11:03:10.491Z,1.20
2023-04-22T11:08:20.413Z,1.00
2023-04-22T11:13:23.747Z,1.00
2023-04-22T11:18:28.065Z,0.90
2023-04-22T11:23:32.451Z,0.67
2023-04-22T11:28:36.453Z,1.33
2023-04-22T11:33:39.672Z,0.80
2023-04-22T11:38:44.631Z,0.70
2023-04-22T11:43:48.523Z,0.70
2023-04-22T11:48:51.686Z,1.10
2023-04-22T11:53:58.394Z,0.80
2023-04-22T11:59:01.563Z,0.70
2023-04-22T12:04:04.886Z,0.70
2023-04-22T12:09:12.006Z,1.10
2023-04-22T12:14:16.473Z,1.20
2023-04-22T12:19:27.250Z,1.03
2023-04-22T12:24:32.022Z,1.23
2023-04-22T12:29:35.688Z,0.90
2023-04-22T12:34:38.862Z,1.10
2023-04-22T12:39:43.402Z,1.00
2023-04-22T12:44:46.886Z,1.03
2023-04-22T12:49:49.957Z,0.90
2023-04-22T12:54:55.344Z,1.07
2023-04-22T12:59:59.536Z,1.00
2023-04-22T13:05:02.869Z,1.00
2023-04-22T13:10:09.989Z,0.80
2023-04-22T13:15:13.439Z,0.80
2023-04-22T13:20:17.095Z,0.80
2023-04-22T13:25:21.746Z,1.00
2023-04-22T13:30:24.970Z,0.80
2023-04-22T13:35:28.144Z,0.70
2023-04-22T13:40:32.642Z,0.60
2023-04-22T13:45:35.847Z,0.60
2023-04-22T13:50:42.522Z,0.50
2023-04-22T13:55:47.363Z,0.60
2023-04-22T14:00:50.518Z,0.60
2023-04-22T14:05:53.810Z,0.50
2023-04-22T14:10:59.367Z,0.60
2023-04-22T14:16:03.506Z,0.50
2023-04-22T14:21:09.381Z,0.40
2023-04-22T14:26:14.348Z,0.50
2023-04-22T14:31:17.559Z,0.40
2023-04-22T14:36:20.692Z,0.50
2023-04-22T14:41:25.845Z,0.43
2023-04-22T14:46:30.015Z,0.50
2023-04-22T14:51:34.854Z,0.60
2023-04-22T14:56:39.661Z,0.50
2023-04-22T15:01:43.711Z,0.60
2023-04-22T15:06:46.889Z,0.60
2023-04-22T15:11:51.653Z,0.40
2023-04-22T15:16:54.968Z,0.40
2023-04-22T15:21:58.129Z,0.40
2023-04-22T15:27:03.196Z,0.40
2023-04-22T15:32:06.849Z,0.47
2023-04-22T15:37:11.895Z,0.30
2023-04-22T15:42:16.850Z,0.37
2023-04-22T15:47:20.119Z,0.30
2023-04-22T15:52:23.533Z,0.40
2023-04-22T15:57:28.279Z,0.30
2023-04-22T16:02:31.628Z,0.33
2023-04-22T16:07:34.981Z,0.30
2023-04-22T16:12:43.766Z,0.40
2023-04-22T16:17:47.066Z,0.37
2023-04-22T16:22:55.672Z,0.40
2023-04-22T16:28:01.021Z,0.33
2023-04-22T16:33:04.794Z,0.30
2023-04-22T16:38:07.894Z,0.30
2023-04-22T16:43:12.932Z,0.40
2023-04-22T16:48:16.222Z,0.30
2023-04-22T16:53:19.596Z,0.47
2023-04-22T16:58:27.076Z,0.40
2023-04-22T17:03:30.293Z,0.50
2023-04-22T17:08:35.268Z,0.70
2023-04-22T17:13:39.779Z,0.73
2023-04-22T17:18:42.894Z,0.80
2023-04-22T17:23:46.274Z,0.50
2023-04-22T17:28:54.249Z,0.50
2023-04-22T17:33:57.846Z,0.50
2023-04-22T17:39:01.062Z,0.53
2023-04-22T17:44:07.383Z,0.50
2023-04-22T17:49:10.521Z,0.40
2023-04-22T17:54:13.876Z,0.20
2023-04-22T17:59:18.716Z,0.43
2023-04-22T18:04:22.114Z,0.40
2023-04-22T18:09:27.205Z,0.40
2023-04-22T18:14:31.763Z,0.40
2023-04-22T18:19:34.896Z,0.47
2023-04-22T18:24:38.075Z,0.43
2023-04-22T18:29:42.947Z,0.20
2023-04-22T18:34:46.371Z,0.20
2023-04-22T18:39:49.658Z,0.50
2023-04-22T18:44:54.405Z,0.30
2023-04-22T18:49:58.431Z,0.30
2023-04-22T18:55:01.610Z,0.30
2023-04-22T19:00:08.239Z,0.30
2023-04-22T19:05:13.490Z,0.50
2023-04-22T19:10:16.651Z,0.53
2023-04-22T19:15:21.604Z,0.50
2023-04-22T19:20:24.764Z,0.30
2023-04-22T19:25:29.120Z,0.50
2023-04-22T19:30:33.574Z,0.40
2023-04-22T19:35:36.732Z,0.40
2023-04-22T19:40:39.841Z,0.50
2023-04-22T19:45:44.340Z,0.50
2023-04-22T19:50:48.815Z,0.30
2023-04-22T19:55:52.910Z,0.47
2023-04-22T20:00:57.787Z,0.50
2023-04-22T20:06:01.438Z,0.30
2023-04-22T20:11:05.106Z,0.30
2023-04-22T20:16:10.672Z,0.30
2023-04-22T20:21:14.832Z,0.40
2023-04-22T20:26:19.869Z,0.30
2023-04-22T20:31:24.871Z,0.40
2023-04-22T20:36:28.077Z,0.57
2023-04-22T20:41:33.924Z,0.73
2023-04-22T20:46:38.793Z,0.70
2023-04-22T20:51:42.801Z,0.63
2023-04-22T20:56:46.118Z,0.60
2023-04-22T21:01:53.677Z,0.80
2023-04-22T21:06:58.328Z,0.80
2023-04-22T21:12:02.343Z,0.90
2023-04-22T21:17:16.041Z,0.90
2023-04-22T21:22:22.016Z,1.10
2023-04-22T21:27:25.981Z,0.73
2023-04-22T21:32:32.129Z,1.00
2023-04-22T21:37:35.839Z,0.93
2023-04-22T21:42:38.952Z,1.20
2023-04-22T21:47:43.467Z,1.27
2023-04-22T21:52:46.638Z,1.17
2023-04-22T21:57:49.894Z,1.17
2023-04-22T22:02:54.508Z,1.07
2023-04-22T22:07:57.753Z,1.10
2023-04-22T22:13:00.969Z,1.10
2023-04-22T22:18:06.634Z,1.10
2023-04-22T22:23:09.738Z,1.00
2023-04-22T22:28:12.853Z,1.00
2023-04-22T22:33:17.446Z,1.07
2023-04-22T22:38:20.629Z,1.30
2023-04-22T22:43:23.774Z,1.20
2023-04-22T22:48:28.383Z,1.17
2023-04-22T22:53:33.033Z,1.43
2023-04-22T22:58:36.537Z,1.20
2023-04-22T23:03:41.352Z,1.40
2023-04-22T23:08:44.607Z,1.20
2023-04-22T23:13:47.772Z,1.40
2023-04-22T23:18:53.692Z,1.13
2023-04-22T23:23:58.246Z,1.20
2023-04-22T23:29:01.908Z,1.40
2023-04-22T23:34:07.287Z,1.50
2023-04-22T23:39:10.430Z,1.30
2023-04-22T23:44:13.727Z,1.50
2023-04-22T23:49:18.244Z,1.20
2023-04-22T23:54:21.393Z,1.40
2023-04-22T23:59:25.277Z,1.30
